sensor_id;sensor_type;location;lat;lon;timestamp;P1;durP1;ratioP1;P2;durP2;ratioP2
70997;SDS011;58663;52.040;4.634;2023-04-01T00:00:19;47.15;;;14.60;;
70997;SDS011;58663;52.040;4.634;2023-04-01T00:02:45;51.65;;;12.43;;
70997;SDS011;58663;52.040;4.634;2023-04-01T00:05:11;58.50;;;15.38;;
70997;SDS011;58663;52.040;4.634;2023-04-01T00:07:37;55.00;;;14.63;;
70997;SDS011;58663;52.040;4.634;2023-04-01T00:10:04;53.28;;;13.80;;
70997;SDS011;58663;52.040;4.634;2023-04-01T00:12:31;39.25;;;9.38;;
70997;SDS011;58663;52.040;4.634;2023-04-01T00:14:56;46.35;;;9.43;;
70997;SDS011;58663;52.040;4.634;2023-04-01T00:17:22;57.03;;;11.05;;
70997;SDS011;58663;52.040;4.634;2023-04-01T00:19:47;65.75;;;11.48;;
70997;SDS011;58663;52.040;4.634;2023-04-01T00:22:13;59.55;;;11.02;;
70997;SDS011;58663;52.040;4.634;2023-04-01T00:24:38;55.17;;;10.73;;
70997;SDS011;58663;52.040;4.634;2023-04-01T00:27:04;57.33;;;10.57;;
70997;SDS011;58663;52.040;4.634;2023-04-01T00:29:29;53.17;;;9.77;;
70997;SDS011;58663;52.040;4.634;2023-04-01T00:31:56;42.55;;;8.02;;
70997;SDS011;58663;52.040;4.634;2023-04-01T00:34:22;40.90;;;8.68;;
70997;SDS011;58663;52.040;4.634;2023-04-01T00:36:48;38.13;;;6.88;;
70997;SDS011;58663;52.040;4.634;2023-04-01T00:39:15;36.65;;;6.18;;
70997;SDS011;58663;52.040;4.634;2023-04-01T00:41:40;46.17;;;7.32;;
70997;SDS011;58663;52.040;4.634;2023-04-01T00:44:22;35.25;;;7.18;;
70997;SDS011;58663;52.040;4.634;2023-04-01T00:46:49;30.60;;;6.07;;
70997;SDS011;58663;52.040;4.634;2023-04-01T00:49:15;28.52;;;6.30;;
70997;SDS011;58663;52.040;4.634;2023-04-01T00:51:43;31.10;;;6.20;;
70997;SDS011;58663;52.040;4.634;2023-04-01T00:54:11;27.10;;;6.68;;
70997;SDS011;58663;52.040;4.634;2023-04-01T00:56:37;34.17;;;6.75;;
70997;SDS011;58663;52.040;4.634;2023-04-01T00:59:08;25.23;;;5.75;;
70997;SDS011;58663;52.040;4.634;2023-04-01T01:01:36;31.60;;;7.60;;
70997;SDS011;58663;52.040;4.634;2023-04-01T01:04:01;26.15;;;6.53;;
70997;SDS011;58663;52.040;4.634;2023-04-01T01:06:51;32.17;;;8.18;;
70997;SDS011;58663;52.040;4.634;2023-04-01T01:26:09;23.52;;;5.88;;
70997;SDS011;58663;52.040;4.634;2023-04-01T01:31:38;25.67;;;5.55;;
70997;SDS011;58663;52.040;4.634;2023-04-01T01:34:23;29.88;;;6.30;;
70997;SDS011;58663;52.040;4.634;2023-04-01T01:36:55;21.40;;;5.30;;
70997;SDS011;58663;52.040;4.634;2023-04-01T01:39:24;21.98;;;4.30;;
70997;SDS011;58663;52.040;4.634;2023-04-01T01:41:53;27.60;;;5.25;;
70997;SDS011;58663;52.040;4.634;2023-04-01T01:44:21;24.02;;;4.93;;
70997;SDS011;58663;52.040;4.634;2023-04-01T01:46:46;20.35;;;4.95;;
70997;SDS011;58663;52.040;4.634;2023-04-01T01:49:12;18.65;;;4.97;;
70997;SDS011;58663;52.040;4.634;2023-04-01T01:51:39;22.48;;;6.10;;
70997;SDS011;58663;52.040;4.634;2023-04-01T01:54:04;22.23;;;5.75;;
70997;SDS011;58663;52.040;4.634;2023-04-01T01:56:30;27.38;;;5.82;;
70997;SDS011;58663;52.040;4.634;2023-04-01T01:59:00;23.08;;;4.72;;
70997;SDS011;58663;52.040;4.634;2023-04-01T02:01:29;25.10;;;5.68;;
70997;SDS011;58663;52.040;4.634;2023-04-01T02:03:57;27.38;;;4.63;;
70997;SDS011;58663;52.040;4.634;2023-04-01T02:06:24;29.42;;;5.18;;
70997;SDS011;58663;52.040;4.634;2023-04-01T02:08:52;26.05;;;6.55;;
70997;SDS011;58663;52.040;4.634;2023-04-01T02:11:30;24.13;;;5.78;;
70997;SDS011;58663;52.040;4.634;2023-04-01T02:14:34;26.77;;;5.32;;
70997;SDS011;58663;52.040;4.634;2023-04-01T02:19:26;24.30;;;6.63;;
70997;SDS011;58663;52.040;4.634;2023-04-01T02:21:55;29.77;;;5.95;;
70997;SDS011;58663;52.040;4.634;2023-04-01T02:24:22;31.58;;;6.05;;
70997;SDS011;58663;52.040;4.634;2023-04-01T02:26:50;20.25;;;5.20;;
70997;SDS011;58663;52.040;4.634;2023-04-01T02:29:17;31.75;;;5.82;;
70997;SDS011;58663;52.040;4.634;2023-04-01T02:31:43;28.00;;;5.53;;
70997;SDS011;58663;52.040;4.634;2023-04-01T02:34:09;21.02;;;5.22;;
70997;SDS011;58663;52.040;4.634;2023-04-01T02:36:35;22.23;;;6.07;;
70997;SDS011;58663;52.040;4.634;2023-04-01T02:39:01;20.92;;;5.35;;
70997;SDS011;58663;52.040;4.634;2023-04-01T02:41:29;22.65;;;5.50;;
70997;SDS011;58663;52.040;4.634;2023-04-01T02:43:54;15.77;;;5.03;;
70997;SDS011;58663;52.040;4.634;2023-04-01T02:46:22;22.65;;;6.13;;
70997;SDS011;58663;52.040;4.634;2023-04-01T02:48:47;15.52;;;5.10;;
70997;SDS011;58663;52.040;4.634;2023-04-01T02:51:13;30.33;;;6.93;;
70997;SDS011;58663;52.040;4.634;2023-04-01T02:53:38;23.38;;;7.38;;
70997;SDS011;58663;52.040;4.634;2023-04-01T02:56:03;24.20;;;7.95;;
70997;SDS011;58663;52.040;4.634;2023-04-01T02:58:29;35.22;;;8.30;;
70997;SDS011;58663;52.040;4.634;2023-04-01T03:00:54;46.38;;;11.55;;
70997;SDS011;58663;52.040;4.634;2023-04-01T03:03:20;36.55;;;11.00;;
70997;SDS011;58663;52.040;4.634;2023-04-01T03:05:45;51.15;;;11.73;;
70997;SDS011;58663;52.040;4.634;2023-04-01T03:08:10;40.42;;;12.23;;
70997;SDS011;58663;52.040;4.634;2023-04-01T03:10:36;42.78;;;12.68;;
70997;SDS011;58663;52.040;4.634;2023-04-01T03:13:02;45.35;;;13.35;;
70997;SDS011;58663;52.040;4.634;2023-04-01T03:15:27;48.30;;;12.75;;
70997;SDS011;58663;52.040;4.634;2023-04-01T03:17:53;46.03;;;12.70;;
70997;SDS011;58663;52.040;4.634;2023-04-01T03:20:18;51.90;;;13.82;;
70997;SDS011;58663;52.040;4.634;2023-04-01T03:22:44;36.97;;;11.35;;
70997;SDS011;58663;52.040;4.634;2023-04-01T03:25:10;44.90;;;10.75;;
70997;SDS011;58663;52.040;4.634;2023-04-01T03:27:36;44.55;;;11.30;;
70997;SDS011;58663;52.040;4.634;2023-04-01T03:30:02;38.38;;;10.70;;
70997;SDS011;58663;52.040;4.634;2023-04-01T03:32:29;37.90;;;9.90;;
70997;SDS011;58663;52.040;4.634;2023-04-01T03:34:54;33.30;;;8.75;;
70997;SDS011;58663;52.040;4.634;2023-04-01T03:37:19;29.98;;;8.80;;
70997;SDS011;58663;52.040;4.634;2023-04-01T03:39:45;38.03;;;9.30;;
70997;SDS011;58663;52.040;4.634;2023-04-01T03:42:11;30.10;;;8.88;;
70997;SDS011;58663;52.040;4.634;2023-04-01T03:44:36;27.25;;;7.85;;
70997;SDS011;58663;52.040;4.634;2023-04-01T03:47:02;26.98;;;8.15;;
70997;SDS011;58663;52.040;4.634;2023-04-01T03:49:27;31.83;;;8.43;;
70997;SDS011;58663;52.040;4.634;2023-04-01T03:51:53;29.10;;;8.75;;
70997;SDS011;58663;52.040;4.634;2023-04-01T03:54:18;30.27;;;7.80;;
70997;SDS011;58663;52.040;4.634;2023-04-01T03:56:45;26.25;;;7.72;;
70997;SDS011;58663;52.040;4.634;2023-04-01T03:59:10;26.73;;;8.23;;
70997;SDS011;58663;52.040;4.634;2023-04-01T04:01:36;24.70;;;7.35;;
70997;SDS011;58663;52.040;4.634;2023-04-01T04:04:01;34.17;;;7.07;;
70997;SDS011;58663;52.040;4.634;2023-04-01T04:06:27;24.17;;;7.35;;
70997;SDS011;58663;52.040;4.634;2023-04-01T04:08:52;20.65;;;6.63;;
70997;SDS011;58663;52.040;4.634;2023-04-01T04:11:18;14.20;;;5.35;;
70997;SDS011;58663;52.040;4.634;2023-04-01T04:13:44;21.38;;;6.68;;
70997;SDS011;58663;52.040;4.634;2023-04-01T04:16:09;30.27;;;8.07;;
70997;SDS011;58663;52.040;4.634;2023-04-01T04:18:35;26.50;;;8.50;;
70997;SDS011;58663;52.040;4.634;2023-04-01T04:21:01;37.67;;;8.55;;
70997;SDS011;58663;52.040;4.634;2023-04-01T04:23:27;36.72;;;9.43;;
70997;SDS011;58663;52.040;4.634;2023-04-01T04:25:55;34.80;;;8.98;;
70997;SDS011;58663;52.040;4.634;2023-04-01T04:28:24;41.95;;;10.18;;
70997;SDS011;58663;52.040;4.634;2023-04-01T04:30:51;49.30;;;10.60;;
70997;SDS011;58663;52.040;4.634;2023-04-01T04:33:17;45.60;;;10.05;;
70997;SDS011;58663;52.040;4.634;2023-04-01T04:35:43;34.53;;;9.93;;
70997;SDS011;58663;52.040;4.634;2023-04-01T04:38:08;41.03;;;10.88;;
70997;SDS011;58663;52.040;4.634;2023-04-01T04:40:35;35.22;;;9.85;;
70997;SDS011;58663;52.040;4.634;2023-04-01T04:43:02;35.08;;;10.35;;
70997;SDS011;58663;52.040;4.634;2023-04-01T04:45:27;31.92;;;10.68;;
70997;SDS011;58663;52.040;4.634;2023-04-01T04:47:53;34.95;;;10.50;;
70997;SDS011;58663;52.040;4.634;2023-04-01T04:50:18;37.85;;;10.70;;
70997;SDS011;58663;52.040;4.634;2023-04-01T04:52:44;37.58;;;13.15;;
70997;SDS011;58663;52.040;4.634;2023-04-01T04:55:09;44.35;;;12.32;;
70997;SDS011;58663;52.040;4.634;2023-04-01T04:57:34;38.90;;;12.90;;
70997;SDS011;58663;52.040;4.634;2023-04-01T05:00:00;47.25;;;12.77;;
70997;SDS011;58663;52.040;4.634;2023-04-01T05:02:25;37.10;;;12.23;;
70997;SDS011;58663;52.040;4.634;2023-04-01T05:04:50;41.47;;;11.75;;
70997;SDS011;58663;52.040;4.634;2023-04-01T05:07:16;44.33;;;11.95;;
70997;SDS011;58663;52.040;4.634;2023-04-01T05:09:41;44.90;;;11.20;;
70997;SDS011;58663;52.040;4.634;2023-04-01T05:12:07;35.25;;;10.05;;
70997;SDS011;58663;52.040;4.634;2023-04-01T05:14:32;44.60;;;11.18;;
70997;SDS011;58663;52.040;4.634;2023-04-01T05:16:57;33.05;;;11.93;;
70997;SDS011;58663;52.040;4.634;2023-04-01T05:19:23;37.53;;;10.30;;
70997;SDS011;58663;52.040;4.634;2023-04-01T05:21:48;52.92;;;11.73;;
70997;SDS011;58663;52.040;4.634;2023-04-01T05:24:13;47.40;;;11.80;;
70997;SDS011;58663;52.040;4.634;2023-04-01T05:26:39;47.53;;;11.40;;
70997;SDS011;58663;52.040;4.634;2023-04-01T05:29:04;34.42;;;10.63;;
70997;SDS011;58663;52.040;4.634;2023-04-01T05:31:30;39.75;;;10.35;;
70997;SDS011;58663;52.040;4.634;2023-04-01T05:33:55;46.88;;;11.43;;
70997;SDS011;58663;52.040;4.634;2023-04-01T05:36:21;47.05;;;11.50;;
70997;SDS011;58663;52.040;4.634;2023-04-01T05:38:46;41.20;;;11.50;;
70997;SDS011;58663;52.040;4.634;2023-04-01T05:41:12;36.55;;;10.70;;
70997;SDS011;58663;52.040;4.634;2023-04-01T05:43:38;46.47;;;10.32;;
70997;SDS011;58663;52.040;4.634;2023-04-01T05:46:04;54.40;;;14.35;;
70997;SDS011;58663;52.040;4.634;2023-04-01T05:48:30;47.95;;;11.93;;
70997;SDS011;58663;52.040;4.634;2023-04-01T05:50:55;41.67;;;11.35;;
70997;SDS011;58663;52.040;4.634;2023-04-01T05:53:20;49.85;;;12.23;;
70997;SDS011;58663;52.040;4.634;2023-04-01T05:55:47;44.35;;;11.70;;
70997;SDS011;58663;52.040;4.634;2023-04-01T05:58:12;47.20;;;12.48;;
70997;SDS011;58663;52.040;4.634;2023-04-01T06:00:38;42.45;;;11.65;;
70997;SDS011;58663;52.040;4.634;2023-04-01T06:03:03;46.65;;;10.40;;
70997;SDS011;58663;52.040;4.634;2023-04-01T06:05:38;38.15;;;9.82;;
70997;SDS011;58663;52.040;4.634;2023-04-01T06:08:08;55.58;;;12.13;;
70997;SDS011;58663;52.040;4.634;2023-04-01T06:13:12;32.55;;;11.55;;
70997;SDS011;58663;52.040;4.634;2023-04-01T06:19:12;51.03;;;14.43;;
70997;SDS011;58663;52.040;4.634;2023-04-01T06:22:14;40.80;;;13.57;;
70997;SDS011;58663;52.040;4.634;2023-04-01T06:30:11;51.90;;;17.00;;
70997;SDS011;58663;52.040;4.634;2023-04-01T06:41:28;48.22;;;15.93;;
70997;SDS011;58663;52.040;4.634;2023-04-01T06:54:48;42.88;;;13.85;;
70997;SDS011;58663;52.040;4.634;2023-04-01T06:57:43;45.80;;;13.52;;
70997;SDS011;58663;52.040;4.634;2023-04-01T07:00:13;54.72;;;13.82;;
70997;SDS011;58663;52.040;4.634;2023-04-01T07:02:54;42.03;;;13.30;;
70997;SDS011;58663;52.040;4.634;2023-04-01T07:05:37;41.30;;;12.82;;
70997;SDS011;58663;52.040;4.634;2023-04-01T07:08:04;41.05;;;13.07;;
70997;SDS011;58663;52.040;4.634;2023-04-01T07:10:45;42.25;;;14.07;;
70997;SDS011;58663;52.040;4.634;2023-04-01T07:13:24;52.20;;;14.65;;
70997;SDS011;58663;52.040;4.634;2023-04-01T07:16:06;42.97;;;14.27;;
70997;SDS011;58663;52.040;4.634;2023-04-01T07:21:05;39.78;;;13.88;;
70997;SDS011;58663;52.040;4.634;2023-04-01T07:23:47;33.55;;;13.48;;
70997;SDS011;58663;52.040;4.634;2023-04-01T07:26:19;39.50;;;13.55;;
70997;SDS011;58663;52.040;4.634;2023-04-01T07:28:48;34.97;;;13.05;;
70997;SDS011;58663;52.040;4.634;2023-04-01T07:34:58;34.35;;;13.15;;
70997;SDS011;58663;52.040;4.634;2023-04-01T07:40:16;40.00;;;11.32;;
70997;SDS011;58663;52.040;4.634;2023-04-01T07:53:58;38.83;;;10.48;;
70997;SDS011;58663;52.040;4.634;2023-04-01T07:56:57;34.88;;;10.98;;
70997;SDS011;58663;52.040;4.634;2023-04-01T07:59:38;37.83;;;10.90;;
70997;SDS011;58663;52.040;4.634;2023-04-01T08:04:45;26.73;;;9.38;;
70997;SDS011;58663;52.040;4.634;2023-04-01T08:12:45;25.52;;;8.93;;
70997;SDS011;58663;52.040;4.634;2023-04-01T08:15:23;34.97;;;10.40;;
70997;SDS011;58663;52.040;4.634;2023-04-01T08:25:37;36.15;;;9.93;;
70997;SDS011;58663;52.040;4.634;2023-04-01T08:28:16;32.67;;;9.75;;
70997;SDS011;58663;52.040;4.634;2023-04-01T08:31:09;31.10;;;9.25;;
70997;SDS011;58663;52.040;4.634;2023-04-01T08:33:31;24.70;;;8.27;;
70997;SDS011;58663;52.040;4.634;2023-04-01T08:35:59;20.23;;;8.00;;
70997;SDS011;58663;52.040;4.634;2023-04-01T08:39:02;15.10;;;7.07;;
70997;SDS011;58663;52.040;4.634;2023-04-01T09:19:00;22.67;;;7.18;;
70997;SDS011;58663;52.040;4.634;2023-04-01T09:30:45;24.55;;;6.97;;
70997;SDS011;58663;52.040;4.634;2023-04-01T09:33:38;32.03;;;10.75;;
70997;SDS011;58663;52.040;4.634;2023-04-01T09:39:06;15.05;;;6.15;;
70997;SDS011;58663;52.040;4.634;2023-04-01T10:00:38;14.55;;;5.40;;
70997;SDS011;58663;52.040;4.634;2023-04-01T10:28:23;24.27;;;7.60;;
70997;SDS011;58663;52.040;4.634;2023-04-01T11:18:17;15.82;;;6.38;;
70997;SDS011;58663;52.040;4.634;2023-04-01T11:23:50;16.80;;;5.53;;
70997;SDS011;58663;52.040;4.634;2023-04-01T11:31:58;17.30;;;6.93;;
70997;SDS011;58663;52.040;4.634;2023-04-01T11:48:58;17.08;;;5.78;;
70997;SDS011;58663;52.040;4.634;2023-04-01T11:57:22;17.58;;;5.55;;
70997;SDS011;58663;52.040;4.634;2023-04-01T12:11:00;13.15;;;6.22;;
70997;SDS011;58663;52.040;4.634;2023-04-01T12:13:43;15.50;;;6.05;;
70997;SDS011;58663;52.040;4.634;2023-04-01T12:30:00;13.30;;;5.85;;
70997;SDS011;58663;52.040;4.634;2023-04-01T12:35:14;13.50;;;6.13;;
70997;SDS011;58663;52.040;4.634;2023-04-01T12:40:51;13.50;;;6.13;;
70997;SDS011;58663;52.040;4.634;2023-04-01T12:57:21;13.63;;;6.28;;
70997;SDS011;58663;52.040;4.634;2023-04-01T13:05:20;20.08;;;7.38;;
70997;SDS011;58663;52.040;4.634;2023-04-01T13:16:07;18.98;;;6.20;;
70997;SDS011;58663;52.040;4.634;2023-04-01T13:26:27;21.45;;;7.53;;
70997;SDS011;58663;52.040;4.634;2023-04-01T13:29:14;17.13;;;6.50;;
70997;SDS011;58663;52.040;4.634;2023-04-01T13:36:48;16.00;;;5.55;;
70997;SDS011;58663;52.040;4.634;2023-04-01T13:42:18;18.83;;;4.93;;
70997;SDS011;58663;52.040;4.634;2023-04-01T13:47:23;11.63;;;4.50;;
70997;SDS011;58663;52.040;4.634;2023-04-01T13:52:32;20.15;;;5.32;;
70997;SDS011;58663;52.040;4.634;2023-04-01T14:00:27;16.38;;;5.60;;
70997;SDS011;58663;52.040;4.634;2023-04-01T14:27:39;13.75;;;5.47;;
70997;SDS011;58663;52.040;4.634;2023-04-01T14:33:14;16.88;;;4.68;;
70997;SDS011;58663;52.040;4.634;2023-04-01T14:41:24;10.68;;;4.10;;
70997;SDS011;58663;52.040;4.634;2023-04-01T14:44:10;8.90;;;3.50;;
70997;SDS011;58663;52.040;4.634;2023-04-01T14:54:40;10.27;;;3.95;;
70997;SDS011;58663;52.040;4.634;2023-04-01T14:59:33;22.98;;;4.32;;
70997;SDS011;58663;52.040;4.634;2023-04-01T15:23:52;9.05;;;4.80;;
70997;SDS011;58663;52.040;4.634;2023-04-01T15:32:17;8.98;;;5.65;;
70997;SDS011;58663;52.040;4.634;2023-04-01T15:35:18;9.48;;;5.15;;
70997;SDS011;58663;52.040;4.634;2023-04-01T15:40:41;12.35;;;7.13;;
70997;SDS011;58663;52.040;4.634;2023-04-01T16:00:23;14.75;;;7.85;;
70997;SDS011;58663;52.040;4.634;2023-04-01T16:05:27;14.77;;;7.90;;
70997;SDS011;58663;52.040;4.634;2023-04-01T16:14:28;22.17;;;13.55;;
70997;SDS011;58663;52.040;4.634;2023-04-01T16:17:29;23.60;;;13.25;;
70997;SDS011;58663;52.040;4.634;2023-04-01T16:22:25;12.73;;;7.85;;
70997;SDS011;58663;52.040;4.634;2023-04-01T16:25:13;13.98;;;8.65;;
70997;SDS011;58663;52.040;4.634;2023-04-01T16:38:40;15.67;;;10.10;;
70997;SDS011;58663;52.040;4.634;2023-04-01T16:41:14;13.48;;;8.85;;
70997;SDS011;58663;52.040;4.634;2023-04-01T16:43:45;18.92;;;10.40;;
70997;SDS011;58663;52.040;4.634;2023-04-01T16:46:20;54.53;;;23.00;;
70997;SDS011;58663;52.040;4.634;2023-04-01T16:49:04;35.72;;;19.35;;
70997;SDS011;58663;52.040;4.634;2023-04-01T16:51:52;48.17;;;24.17;;
70997;SDS011;58663;52.040;4.634;2023-04-01T17:01:55;95.88;;;42.65;;
70997;SDS011;58663;52.040;4.634;2023-04-01T17:04:37;62.30;;;30.10;;
70997;SDS011;58663;52.040;4.634;2023-04-01T17:23:24;49.25;;;23.83;;
70997;SDS011;58663;52.040;4.634;2023-04-01T17:26:15;36.75;;;18.30;;
70997;SDS011;58663;52.040;4.634;2023-04-01T17:37:03;45.80;;;19.52;;
70997;SDS011;58663;52.040;4.634;2023-04-01T17:39:41;29.42;;;16.98;;
70997;SDS011;58663;52.040;4.634;2023-04-01T17:44:52;20.10;;;12.15;;
70997;SDS011;58663;52.040;4.634;2023-04-01T17:47:23;16.27;;;9.48;;
70997;SDS011;58663;52.040;4.634;2023-04-01T17:50:01;18.95;;;10.43;;
70997;SDS011;58663;52.040;4.634;2023-04-01T17:58:28;11.95;;;6.97;;
70997;SDS011;58663;52.040;4.634;2023-04-01T18:22:28;13.40;;;8.70;;
70997;SDS011;58663;52.040;4.634;2023-04-01T18:25:25;11.75;;;8.98;;
70997;SDS011;58663;52.040;4.634;2023-04-01T18:28:05;11.93;;;8.95;;
70997;SDS011;58663;52.040;4.634;2023-04-01T18:30:39;11.75;;;8.77;;
70997;SDS011;58663;52.040;4.634;2023-04-01T18:38:52;14.25;;;8.43;;
70997;SDS011;58663;52.040;4.634;2023-04-01T18:41:20;13.93;;;9.15;;
70997;SDS011;58663;52.040;4.634;2023-04-01T18:44:00;19.10;;;10.65;;
70997;SDS011;58663;52.040;4.634;2023-04-01T18:46:39;11.43;;;7.05;;
70997;SDS011;58663;52.040;4.634;2023-04-01T18:49:29;15.02;;;7.25;;
70997;SDS011;58663;52.040;4.634;2023-04-01T18:51:59;15.10;;;7.63;;
70997;SDS011;58663;52.040;4.634;2023-04-01T18:54:39;15.15;;;9.65;;
70997;SDS011;58663;52.040;4.634;2023-04-01T18:57:10;16.02;;;11.23;;
70997;SDS011;58663;52.040;4.634;2023-04-01T18:59:51;14.43;;;9.50;;
70997;SDS011;58663;52.040;4.634;2023-04-01T19:05:02;13.57;;;8.38;;
70997;SDS011;58663;52.040;4.634;2023-04-01T19:07:42;16.67;;;8.98;;
70997;SDS011;58663;52.040;4.634;2023-04-01T19:10:15;14.68;;;8.50;;
70997;SDS011;58663;52.040;4.634;2023-04-01T19:13:09;17.92;;;9.52;;
70997;SDS011;58663;52.040;4.634;2023-04-01T19:16:00;11.48;;;8.07;;
70997;SDS011;58663;52.040;4.634;2023-04-01T19:21:47;16.63;;;7.70;;
70997;SDS011;58663;52.040;4.634;2023-04-01T19:24:25;9.32;;;6.60;;
70997;SDS011;58663;52.040;4.634;2023-04-01T19:37:50;10.10;;;6.10;;
70997;SDS011;58663;52.040;4.634;2023-04-01T19:50:42;8.45;;;6.28;;
70997;SDS011;58663;52.040;4.634;2023-04-01T19:58:50;41.58;;;26.25;;
70997;SDS011;58663;52.040;4.634;2023-04-01T20:04:03;17.07;;;11.30;;
70997;SDS011;58663;52.040;4.634;2023-04-01T20:17:50;26.50;;;14.32;;
70997;SDS011;58663;52.040;4.634;2023-04-01T20:20:21;22.77;;;12.55;;
70997;SDS011;58663;52.040;4.634;2023-04-01T20:26:09;14.55;;;9.57;;
70997;SDS011;58663;52.040;4.634;2023-04-01T20:39:27;46.45;;;20.13;;
70997;SDS011;58663;52.040;4.634;2023-04-01T20:47:43;49.05;;;19.73;;
70997;SDS011;58663;52.040;4.634;2023-04-01T20:53:01;38.15;;;16.95;;
70997;SDS011;58663;52.040;4.634;2023-04-01T20:55:47;14.32;;;7.78;;
70997;SDS011;58663;52.040;4.634;2023-04-01T20:58:27;26.10;;;10.73;;
70997;SDS011;58663;52.040;4.634;2023-04-01T21:01:01;18.98;;;9.30;;
70997;SDS011;58663;52.040;4.634;2023-04-01T21:09:45;23.40;;;11.68;;
70997;SDS011;58663;52.040;4.634;2023-04-01T21:14:47;12.05;;;7.15;;
70997;SDS011;58663;52.040;4.634;2023-04-01T21:21:08;13.05;;;6.53;;
70997;SDS011;58663;52.040;4.634;2023-04-01T21:24:02;10.13;;;6.13;;
70997;SDS011;58663;52.040;4.634;2023-04-01T21:29:51;10.50;;;6.57;;
70997;SDS011;58663;52.040;4.634;2023-04-01T21:35:52;9.85;;;6.47;;
70997;SDS011;58663;52.040;4.634;2023-04-01T21:54:35;9.88;;;5.93;;
70997;SDS011;58663;52.040;4.634;2023-04-01T21:58:07;10.07;;;6.43;;
70997;SDS011;58663;52.040;4.634;2023-04-01T22:00:53;12.68;;;6.10;;
70997;SDS011;58663;52.040;4.634;2023-04-01T22:03:44;15.30;;;6.20;;
70997;SDS011;58663;52.040;4.634;2023-04-01T22:14:26;13.75;;;5.80;;
70997;SDS011;58663;52.040;4.634;2023-04-01T22:16:58;10.07;;;5.45;;
70997;SDS011;58663;52.040;4.634;2023-04-01T22:22:59;9.20;;;6.93;;
70997;SDS011;58663;52.040;4.634;2023-04-01T22:31:03;11.52;;;6.80;;
70997;SDS011;58663;52.040;4.634;2023-04-01T22:36:19;14.98;;;6.25;;
70997;SDS011;58663;52.040;4.634;2023-04-01T22:52:34;11.10;;;6.18;;
70997;SDS011;58663;52.040;4.634;2023-04-01T22:55:04;10.80;;;6.15;;
70997;SDS011;58663;52.040;4.634;2023-04-01T22:57:46;10.10;;;6.20;;
70997;SDS011;58663;52.040;4.634;2023-04-01T23:00:33;10.38;;;6.18;;
70997;SDS011;58663;52.040;4.634;2023-04-01T23:03:15;9.75;;;6.72;;
70997;SDS011;58663;52.040;4.634;2023-04-01T23:05:54;13.48;;;6.90;;
70997;SDS011;58663;52.040;4.634;2023-04-01T23:11:24;10.05;;;6.45;;
70997;SDS011;58663;52.040;4.634;2023-04-01T23:16:55;14.48;;;7.55;;
70997;SDS011;58663;52.040;4.634;2023-04-01T23:25:11;13.13;;;6.93;;
70997;SDS011;58663;52.040;4.634;2023-04-01T23:36:09;10.77;;;7.07;;
70997;SDS011;58663;52.040;4.634;2023-04-01T23:38:37;14.88;;;7.78;;
70997;SDS011;58663;52.040;4.634;2023-04-01T23:41:04;12.45;;;7.43;;
70997;SDS011;58663;52.040;4.634;2023-04-01T23:43:31;13.90;;;7.30;;
70997;SDS011;58663;52.040;4.634;2023-04-01T23:46:00;12.88;;;7.82;;
70997;SDS011;58663;52.040;4.634;2023-04-01T23:48:38;16.35;;;7.70;;
70997;SDS011;58663;52.040;4.634;2023-04-01T23:51:20;14.85;;;7.85;;
70997;SDS011;58663;52.040;4.634;2023-04-01T23:53:48;15.18;;;7.35;;
70997;SDS011;58663;52.040;4.634;2023-04-01T23:56:21;17.27;;;7.95;;
70997;SDS011;58663;52.040;4.634;2023-04-01T23:58:48;13.48;;;7.57;;
